createdAt,value
2022-10-03T00:00:12.227Z,14.68
2022-10-03T00:03:22.061Z,16.77
2022-10-03T00:05:58.747Z,14.71
2022-10-03T00:08:54.811Z,14.55
2022-10-03T00:11:32.372Z,14.57
2022-10-03T00:14:04.527Z,14.80
2022-10-03T00:16:40.817Z,14.12
2022-10-03T00:19:15.136Z,15.88
2022-10-03T00:21:54.026Z,14.39
2022-10-03T00:24:28.284Z,14.26
2022-10-03T00:27:02.845Z,15.81
2022-10-03T00:30:13.011Z,16.33
2022-10-03T00:32:56.135Z,15.49
2022-10-03T00:35:33.488Z,14.61
2022-10-03T00:38:12.581Z,16.25
2022-10-03T00:41:06.227Z,15.51
2022-10-03T00:44:04.389Z,17.19
2022-10-03T00:47:16.867Z,16.42
2022-10-03T00:50:08.667Z,15.51
2022-10-03T00:52:47.567Z,15.88
2022-10-03T00:55:20.673Z,15.79
2022-10-03T00:58:01.556Z,16.25
2022-10-03T01:00:32.506Z,16.02
2022-10-03T01:03:15.380Z,16.08
2022-10-03T01:05:58.002Z,14.98
2022-10-03T01:09:04.205Z,15.14
2022-10-03T01:11:39.505Z,13.91
2022-10-03T01:14:19.085Z,16.47
2022-10-03T01:17:10.670Z,16.37
2022-10-03T01:20:00.453Z,17.18
2022-10-03T01:22:55.010Z,15.26
2022-10-03T01:25:34.312Z,15.03
2022-10-03T01:28:27.878Z,16.18
2022-10-03T01:31:00.188Z,14.02
2022-10-03T01:33:33.157Z,15.44
2022-10-03T01:36:04.789Z,14.36
2022-10-03T01:38:37.397Z,16.11
2022-10-03T01:41:10.277Z,13.90
2022-10-03T01:43:43.103Z,15.66
2022-10-03T01:46:17.910Z,15.15
2022-10-03T01:48:52.354Z,14.44
2022-10-03T01:51:25.103Z,16.02
2022-10-03T01:54:17.266Z,14.73
2022-10-03T01:56:53.881Z,15.18
2022-10-03T01:59:25.297Z,15.94
2022-10-03T02:01:59.073Z,14.16
2022-10-03T02:04:37.624Z,14.66
2022-10-03T02:07:19.033Z,15.67
2022-10-03T02:09:55.402Z,15.63
2022-10-03T02:12:28.988Z,15.62
2022-10-03T02:15:00.124Z,14.82
2022-10-03T02:17:45.001Z,15.13
2022-10-03T02:20:23.641Z,14.47
2022-10-03T02:22:54.233Z,15.09
2022-10-03T02:25:26.414Z,15.67
2022-10-03T02:28:30.486Z,15.31
2022-10-03T02:31:19.465Z,16.26
2022-10-03T02:34:23.086Z,16.43
2022-10-03T02:37:05.922Z,17.29
2022-10-03T02:40:31.763Z,16.49
2022-10-03T02:43:41.960Z,17.06
2022-10-03T02:47:03.867Z,16.42
2022-10-03T02:50:01.600Z,17.76
2022-10-03T02:52:44.004Z,16.24
2022-10-03T02:55:37.281Z,16.11
2022-10-03T02:58:27.690Z,17.10
2022-10-03T03:01:28.666Z,17.29
2022-10-03T03:04:32.897Z,17.50
2022-10-03T03:07:38.191Z,16.55
2022-10-03T03:10:28.910Z,16.85
2022-10-03T03:13:10.323Z,17.50
2022-10-03T03:16:20.285Z,17.45
2022-10-03T03:18:54.230Z,17.14
2022-10-03T03:21:28.749Z,18.29
2022-10-03T03:24:17.479Z,17.09
2022-10-03T03:26:56.106Z,17.97
2022-10-03T03:29:36.728Z,16.86
2022-10-03T03:32:15.579Z,16.64
2022-10-03T03:34:49.334Z,17.31
2022-10-03T03:37:22.235Z,17.34
2022-10-03T03:40:02.942Z,17.29
2022-10-03T03:42:49.714Z,17.43
2022-10-03T03:45:30.896Z,17.21
2022-10-03T03:48:12.112Z,16.57
2022-10-03T03:50:47.816Z,16.86
2022-10-03T03:53:45.970Z,18.14
2022-10-03T03:56:28.323Z,17.52
2022-10-03T03:59:04.297Z,17.40
2022-10-03T04:01:41.505Z,16.90
2022-10-03T04:04:20.594Z,17.43
2022-10-03T04:06:56.563Z,19.00
2022-10-03T04:09:43.438Z,17.78
2022-10-03T04:12:21.733Z,18.34
2022-10-03T04:15:18.947Z,18.08
2022-10-03T04:18:20.491Z,18.71
2022-10-03T04:21:02.143Z,16.95
2022-10-03T04:23:50.907Z,18.39
2022-10-03T04:26:26.659Z,18.30
2022-10-03T04:29:12.886Z,17.58
2022-10-03T04:31:46.894Z,18.67
2022-10-03T04:34:25.642Z,17.74
2022-10-03T04:37:05.253Z,18.30
2022-10-03T04:39:37.520Z,19.41
2022-10-03T04:42:14.619Z,18.85
2022-10-03T04:44:58.042Z,19.37
2022-10-03T04:47:29.294Z,18.08
2022-10-03T04:50:02.111Z,17.58
2022-10-03T04:52:39.422Z,18.45
2022-10-03T04:55:16.695Z,17.54
2022-10-03T04:57:48.392Z,17.93
2022-10-03T05:00:24.404Z,19.41
2022-10-03T05:02:58.850Z,18.67
2022-10-03T05:05:41.281Z,16.97
2022-10-03T05:08:19.295Z,18.25
2022-10-03T05:10:56.900Z,17.81
2022-10-03T05:13:37.541Z,18.17
2022-10-03T05:16:11.099Z,17.52
2022-10-03T05:18:42.562Z,18.38
2022-10-03T05:21:13.176Z,17.70
2022-10-03T05:23:48.752Z,18.31
2022-10-03T05:26:44.007Z,18.93
2022-10-03T05:29:18.805Z,17.56
2022-10-03T05:31:53.657Z,16.38
2022-10-03T05:34:35.970Z,17.72
2022-10-03T05:37:20.852Z,16.83
2022-10-03T05:39:55.556Z,17.56
2022-10-03T05:42:47.375Z,17.63
2022-10-03T05:45:24.757Z,17.60
2022-10-03T05:47:58.164Z,18.75
2022-10-03T05:50:43.891Z,18.56
2022-10-03T05:53:37.994Z,17.42
2022-10-03T05:56:09.290Z,17.59
2022-10-03T05:59:10.527Z,17.41
2022-10-03T06:02:08.098Z,17.35
2022-10-03T06:04:56.683Z,18.76
2022-10-03T06:07:27.613Z,16.98
2022-10-03T06:10:22.205Z,17.73
2022-10-03T06:12:57.903Z,18.40
2022-10-03T06:15:54.330Z,18.87
2022-10-03T06:19:06.259Z,18.37
2022-10-03T06:22:25.290Z,17.86
2022-10-03T06:25:28.385Z,16.46
2022-10-03T06:28:22.960Z,17.85
2022-10-03T06:31:01.069Z,18.64
2022-10-03T06:33:54.668Z,17.59
2022-10-03T06:37:04.501Z,17.64
2022-10-03T06:39:59.297Z,18.15
2022-10-03T06:42:56.412Z,18.51
2022-10-03T06:45:59.086Z,17.37
2022-10-03T06:48:41.472Z,18.54
2022-10-03T06:51:32.813Z,18.02
2022-10-03T06:54:21.485Z,18.11
2022-10-03T06:57:20.544Z,19.14
2022-10-03T07:00:02.597Z,18.33
2022-10-03T07:03:04.195Z,19.60
2022-10-03T07:05:58.093Z,17.81
2022-10-03T07:08:38.700Z,19.66
2022-10-03T07:11:15.621Z,19.74
2022-10-03T07:14:01.280Z,18.26
2022-10-03T07:16:43.735Z,19.60
2022-10-03T07:19:39.640Z,21.03
2022-10-03T07:22:40.808Z,19.17
2022-10-03T07:25:37.275Z,19.22
2022-10-03T07:28:30.812Z,20.82
2022-10-03T07:31:08.139Z,19.40
2022-10-03T07:34:19.595Z,19.59
2022-10-03T07:37:19.636Z,19.70
2022-10-03T07:40:31.718Z,19.29
2022-10-03T07:43:35.702Z,19.38
2022-10-03T07:46:44.085Z,20.03
2022-10-03T07:49:22.614Z,19.28
2022-10-03T07:52:04.737Z,19.37
2022-10-03T07:55:01.029Z,20.93
2022-10-03T07:57:53.334Z,21.14
2022-10-03T08:00:24.204Z,20.93
2022-10-03T08:03:25.241Z,20.27
2022-10-03T08:06:12.078Z,19.51
2022-10-03T08:09:09.135Z,19.55
2022-10-03T08:11:53.190Z,19.20
2022-10-03T08:14:27.153Z,19.44
2022-10-03T08:17:24.081Z,18.79
2022-10-03T08:20:05.518Z,19.70
2022-10-03T08:22:45.977Z,19.08
2022-10-03T08:25:28.009Z,20.21
2022-10-03T08:28:11.708Z,20.95
2022-10-03T08:30:54.640Z,20.16
2022-10-03T08:33:42.553Z,20.93
2022-10-03T08:36:50.630Z,22.38
2022-10-03T08:39:35.168Z,21.56
2022-10-03T08:42:37.799Z,21.52
2022-10-03T08:45:35.198Z,20.42
2022-10-03T08:48:38.266Z,20.12
2022-10-03T08:51:44.362Z,20.28
2022-10-03T08:54:27.657Z,20.42
2022-10-03T08:57:12.643Z,21.66
2022-10-03T09:00:05.410Z,20.13
2022-10-03T09:03:31.511Z,21.07
2022-10-03T09:06:30.278Z,21.04
2022-10-03T09:09:17.964Z,22.37
2022-10-03T09:12:22.478Z,23.14
2022-10-03T09:15:05.331Z,21.12
2022-10-03T09:18:05.403Z,22.73
2022-10-03T09:21:07.125Z,21.90
2022-10-03T09:23:58.031Z,21.13
2022-10-03T09:27:03.153Z,21.79
2022-10-03T09:30:06.627Z,21.63
2022-10-03T09:33:07.915Z,22.63
2022-10-03T09:35:56.710Z,21.68
2022-10-03T09:39:04.750Z,22.13
2022-10-03T09:42:15.115Z,21.55
2022-10-03T09:44:57.607Z,22.11
2022-10-03T09:48:03.086Z,22.55
2022-10-03T09:50:56.537Z,22.70
2022-10-03T09:53:49.030Z,20.44
2022-10-03T09:57:00.636Z,23.19
2022-10-03T10:00:01.764Z,23.83
2022-10-03T10:02:59.992Z,22.97
2022-10-03T10:06:05.556Z,23.42
2022-10-03T10:09:04.472Z,21.86
2022-10-03T10:11:52.740Z,21.73
2022-10-03T10:14:41.998Z,20.95
2022-10-03T10:17:57.748Z,21.40
2022-10-03T10:20:46.251Z,21.47
2022-10-03T10:23:30.768Z,23.01
2022-10-03T10:26:33.810Z,22.17
2022-10-03T10:29:17.701Z,21.70
2022-10-03T10:32:33.770Z,21.96
2022-10-03T10:35:46.769Z,21.66
2022-10-03T10:38:26.059Z,22.71
2022-10-03T10:41:29.468Z,21.68
2022-10-03T10:44:30.820Z,22.79
2022-10-03T10:47:12.520Z,23.06
2022-10-03T10:50:18.665Z,22.81
2022-10-03T10:53:23.554Z,23.28
2022-10-03T10:56:29.274Z,22.91
2022-10-03T10:59:46.079Z,23.68
2022-10-03T11:02:51.198Z,22.84
2022-10-03T11:06:09.611Z,23.26
2022-10-03T11:09:15.519Z,23.65
2022-10-03T11:12:20.281Z,22.22
2022-10-03T11:15:36.058Z,23.68
2022-10-03T11:18:33.237Z,23.58
2022-10-03T11:21:46.670Z,23.31
2022-10-03T11:24:38.306Z,22.21
2022-10-03T11:27:35.783Z,24.33
2022-10-03T11:30:23.980Z,24.47
2022-10-03T11:33:28.050Z,23.06
2022-10-03T11:36:32.515Z,23.20
2022-10-03T11:39:05.358Z,22.97
2022-10-03T11:41:42.057Z,21.44
2022-10-03T11:44:19.787Z,21.76
2022-10-03T11:47:21.108Z,21.09
2022-10-03T11:50:13.638Z,21.79
2022-10-03T11:52:53.250Z,21.50
2022-10-03T11:55:28.765Z,23.07
2022-10-03T11:58:07.523Z,22.49
2022-10-03T12:00:38.316Z,24.01
2022-10-03T12:03:17.239Z,22.65
2022-10-03T12:05:52.790Z,22.32
2022-10-03T12:08:44.408Z,23.77
2022-10-03T12:11:17.617Z,21.73
2022-10-03T12:13:59.861Z,22.13
2022-10-03T12:16:30.678Z,22.11
2022-10-03T12:19:03.831Z,21.46
2022-10-03T12:21:44.421Z,21.80
2022-10-03T12:24:24.776Z,21.82
2022-10-03T12:27:00.448Z,20.85
2022-10-03T12:29:32.313Z,23.75
2022-10-03T12:32:13.231Z,22.73
2022-10-03T12:34:43.385Z,24.50
2022-10-03T12:37:29.433Z,23.61
2022-10-03T12:40:05.772Z,23.48
2022-10-03T12:42:36.796Z,23.99
2022-10-03T12:45:09.488Z,24.51
2022-10-03T12:47:55.764Z,24.88
2022-10-03T12:50:35.184Z,25.22
2022-10-03T12:53:21.180Z,25.43
2022-10-03T12:55:57.744Z,23.14
2022-10-03T12:58:32.714Z,26.54
2022-10-03T13:01:07.151Z,29.10
2022-10-03T13:03:40.706Z,25.21
2022-10-03T13:07:01.179Z,26.68
2022-10-03T13:09:29.231Z,24.97
2022-10-03T13:12:03.954Z,25.43
2022-10-03T13:14:43.570Z,25.01
2022-10-03T13:17:20.243Z,24.10
2022-10-03T13:19:55.274Z,27.45
2022-10-03T13:22:34.870Z,27.94
2022-10-03T13:25:13.767Z,28.52
2022-10-03T13:27:44.600Z,30.32
2022-10-03T13:30:18.333Z,27.01
2022-10-03T13:32:48.632Z,24.81
2022-10-03T13:35:49.186Z,23.06
2022-10-03T13:38:46.064Z,26.88
2022-10-03T13:41:25.281Z,27.71
2022-10-03T13:43:59.263Z,28.18
2022-10-03T13:46:31.224Z,27.61
2022-10-03T13:49:02.395Z,25.81
2022-10-03T13:51:36.241Z,24.95
2022-10-03T13:54:08.110Z,24.05
2022-10-03T13:56:51.289Z,26.00
2022-10-03T13:59:33.283Z,26.27
2022-10-03T14:02:12.619Z,27.71
2022-10-03T14:04:54.273Z,28.97
2022-10-03T14:07:31.197Z,26.90
2022-10-03T14:10:14.671Z,27.28
2022-10-03T14:12:56.374Z,24.78
2022-10-03T14:15:36.240Z,24.08
2022-10-03T14:18:14.100Z,23.40
2022-10-03T14:21:19.513Z,24.53
2022-10-03T14:23:50.603Z,25.04
2022-10-03T14:26:22.775Z,26.85
2022-10-03T14:28:54.484Z,28.39
2022-10-03T14:31:25.982Z,30.88
2022-10-03T14:33:57.514Z,29.45
2022-10-03T14:36:34.027Z,27.42
2022-10-03T14:39:15.026Z,26.53
2022-10-03T14:41:48.330Z,25.73
2022-10-03T14:44:21.226Z,25.36
2022-10-03T14:46:53.143Z,24.97
2022-10-03T14:49:52.157Z,25.20
2022-10-03T14:52:20.434Z,24.77
2022-10-03T14:54:51.715Z,24.03
2022-10-03T14:57:27.963Z,26.09
2022-10-03T14:59:58.329Z,25.39
2022-10-03T15:02:31.314Z,25.93
2022-10-03T15:05:06.270Z,25.38
2022-10-03T15:07:36.742Z,24.77
2022-10-03T15:10:09.457Z,23.98
2022-10-03T15:12:39.049Z,25.39
2022-10-03T15:15:11.483Z,24.11
2022-10-03T15:17:46.225Z,24.29
2022-10-03T15:20:14.174Z,25.13
2022-10-03T15:22:43.135Z,24.65
2022-10-03T15:25:14.811Z,23.42
2022-10-03T15:27:44.128Z,24.60
2022-10-03T15:30:20.945Z,24.55
2022-10-03T15:32:49.875Z,23.94
2022-10-03T15:35:19.852Z,24.59
2022-10-03T15:37:48.771Z,25.28
2022-10-03T15:40:24.654Z,23.95
2022-10-03T15:42:54.808Z,24.58
2022-10-03T15:45:28.888Z,25.99
2022-10-03T15:47:57.635Z,24.17
2022-10-03T15:50:27.100Z,24.26
2022-10-03T15:53:04.688Z,24.56
2022-10-03T15:55:49.926Z,24.46
2022-10-03T15:58:20.104Z,23.94
2022-10-03T16:00:55.867Z,23.59
2022-10-03T16:03:29.882Z,23.34
2022-10-03T16:06:03.609Z,23.71
2022-10-03T16:08:33.623Z,24.46
2022-10-03T16:11:09.124Z,24.93
2022-10-03T16:13:38.926Z,24.26
2022-10-03T16:16:14.413Z,24.20
2022-10-03T16:18:50.939Z,24.90
2022-10-03T16:21:53.796Z,25.11
2022-10-03T16:24:29.766Z,24.12
2022-10-03T16:27:03.065Z,23.64
2022-10-03T16:29:33.573Z,24.10
2022-10-03T16:32:06.040Z,24.42
2022-10-03T16:34:35.369Z,24.24
2022-10-03T16:37:06.878Z,24.15
2022-10-03T16:39:36.463Z,24.22
2022-10-03T16:42:12.182Z,24.41
2022-10-03T16:44:41.941Z,24.46
2022-10-03T16:47:11.899Z,23.49
2022-10-03T16:50:00.881Z,22.94
2022-10-03T16:52:33.319Z,23.47
2022-10-03T16:55:06.342Z,22.64
2022-10-03T16:57:42.984Z,23.34
2022-10-03T17:02:45.300Z,22.64
2022-10-03T17:05:14.733Z,21.77
2022-10-03T17:07:44.568Z,21.65
2022-10-03T17:10:31.810Z,21.51
2022-10-03T17:13:03.763Z,21.98
2022-10-03T17:15:34.205Z,22.54
2022-10-03T17:18:15.763Z,21.78
2022-10-03T17:20:48.215Z,22.35
2022-10-03T17:23:27.795Z,22.48
2022-10-03T17:26:03.212Z,22.63
2022-10-03T17:28:37.242Z,21.97
2022-10-03T17:31:07.093Z,22.67
2022-10-03T17:33:41.668Z,22.22
2022-10-03T17:36:37.251Z,22.93
2022-10-03T17:39:06.916Z,22.59
2022-10-03T17:41:39.454Z,23.34
2022-10-03T17:44:17.584Z,22.15
2022-10-03T17:46:53.256Z,22.42
2022-10-03T17:49:28.758Z,22.78
2022-10-03T17:51:57.239Z,22.94
2022-10-03T17:54:28.026Z,23.03
2022-10-03T17:56:59.297Z,23.59
2022-10-03T17:59:29.437Z,22.93
2022-10-03T18:01:59.245Z,23.25
2022-10-03T18:04:34.670Z,22.94
2022-10-03T18:07:07.019Z,22.55
2022-10-03T18:09:40.629Z,24.14
2022-10-03T18:12:17.028Z,22.23
2022-10-03T18:15:10.835Z,21.84
2022-10-03T18:17:49.356Z,21.18
2022-10-03T18:20:30.495Z,22.09
2022-10-03T18:23:00.863Z,22.20
2022-10-03T18:26:08.409Z,20.23
2022-10-03T18:28:40.870Z,21.84
2022-10-03T18:31:10.886Z,23.52
2022-10-03T18:33:50.255Z,22.12
2022-10-03T18:36:22.763Z,22.35
2022-10-03T18:38:51.499Z,22.60
2022-10-03T18:41:20.213Z,22.61
2022-10-03T18:43:58.698Z,22.57
2022-10-03T18:46:30.214Z,22.50
2022-10-03T18:49:30.177Z,23.03
2022-10-03T18:51:58.022Z,22.51
2022-10-03T18:54:35.060Z,22.76
2022-10-03T18:57:06.580Z,23.05
2022-10-03T18:59:37.298Z,22.28
2022-10-03T19:02:05.870Z,22.07
2022-10-03T19:04:37.752Z,22.30
2022-10-03T19:07:15.136Z,21.74
2022-10-03T19:10:05.069Z,22.61
2022-10-03T19:12:35.736Z,22.51
2022-10-03T19:15:15.162Z,22.94
2022-10-03T19:17:51.156Z,23.22
2022-10-03T19:20:23.669Z,23.06
2022-10-03T19:23:01.755Z,22.01
2022-10-03T19:25:31.220Z,23.05
2022-10-03T19:28:01.015Z,23.17
2022-10-03T19:30:30.081Z,22.85
2022-10-03T19:33:00.401Z,23.03
2022-10-03T19:35:29.570Z,22.33
2022-10-03T19:38:02.917Z,22.66
2022-10-03T19:40:42.705Z,22.17
2022-10-03T19:43:41.878Z,22.99
2022-10-03T19:46:22.407Z,22.97
2022-10-03T19:49:02.878Z,22.71
2022-10-03T19:51:30.694Z,23.51
2022-10-03T19:53:59.981Z,23.65
2022-10-03T19:56:32.389Z,22.26
2022-10-03T19:59:03.100Z,22.16
2022-10-03T20:01:40.631Z,22.16
2022-10-03T20:04:08.821Z,21.69
2022-10-03T20:06:39.659Z,22.46
2022-10-03T20:09:19.604Z,22.07
2022-10-03T20:11:48.825Z,23.15
2022-10-03T20:14:19.703Z,22.42
2022-10-03T20:16:50.021Z,23.19
2022-10-03T20:19:21.949Z,23.10
2022-10-03T20:21:53.331Z,23.17
2022-10-03T20:24:29.556Z,22.72
2022-10-03T20:27:03.033Z,22.75
2022-10-03T20:29:32.814Z,23.27
2022-10-03T20:32:01.937Z,23.55
2022-10-03T20:34:30.758Z,23.17
2022-10-03T20:37:14.307Z,21.84
2022-10-03T20:39:45.922Z,21.67
2022-10-03T20:42:17.725Z,22.05
2022-10-03T20:44:55.385Z,23.01
2022-10-03T20:47:49.894Z,23.54
2022-10-03T20:50:24.298Z,22.90
2022-10-03T20:52:54.271Z,22.02
2022-10-03T20:55:25.770Z,21.77
2022-10-03T20:58:00.758Z,23.10
2022-10-03T21:00:28.593Z,22.72
2022-10-03T21:03:00.657Z,21.94
2022-10-03T21:05:30.685Z,22.88
2022-10-03T21:08:00.368Z,21.97
2022-10-03T21:10:32.502Z,23.12
2022-10-03T21:13:01.962Z,22.88
2022-10-03T21:15:43.850Z,21.46
2022-10-03T21:18:20.700Z,23.25
2022-10-03T21:20:48.688Z,22.08
2022-10-03T21:23:20.534Z,23.15
2022-10-03T21:25:51.497Z,22.70
2022-10-03T21:28:26.010Z,22.39
2022-10-03T21:31:22.727Z,21.57
2022-10-03T21:33:59.993Z,22.41
2022-10-03T21:36:34.719Z,22.34
2022-10-03T21:39:16.280Z,21.91
2022-10-03T21:41:52.628Z,22.11
2022-10-03T21:44:33.993Z,22.81
2022-10-03T21:47:09.150Z,20.56
2022-10-03T21:49:48.210Z,21.77
2022-10-03T21:52:42.246Z,21.77
2022-10-03T21:55:50.802Z,22.91
2022-10-03T21:58:39.068Z,22.85
2022-10-03T22:01:13.775Z,21.94
2022-10-03T22:03:47.198Z,21.76
2022-10-03T22:06:20.403Z,22.50
2022-10-03T22:08:49.512Z,22.35
2022-10-03T22:11:26.278Z,22.22
2022-10-03T22:14:03.262Z,22.68
2022-10-03T22:16:42.747Z,23.14
2022-10-03T22:19:20.185Z,21.82
2022-10-03T22:21:59.511Z,22.33
2022-10-03T22:24:32.830Z,21.75
2022-10-03T22:27:05.233Z,21.74
2022-10-03T22:29:40.021Z,22.08
2022-10-03T22:32:11.525Z,21.30
2022-10-03T22:34:43.920Z,22.33
2022-10-03T22:37:12.365Z,22.08
2022-10-03T22:39:40.237Z,21.23
2022-10-03T22:42:08.212Z,21.89
2022-10-03T22:44:39.074Z,22.77
2022-10-03T22:47:10.936Z,21.71
2022-10-03T22:49:41.012Z,22.33
2022-10-03T22:52:12.666Z,20.84
2022-10-03T22:54:41.941Z,22.07
2022-10-03T22:57:10.782Z,21.55
2022-10-03T22:59:43.927Z,22.36
2022-10-03T23:02:11.712Z,22.57
2022-10-03T23:04:43.828Z,22.13
2022-10-03T23:07:37.130Z,21.58
2022-10-03T23:10:16.200Z,22.46
2022-10-03T23:12:46.577Z,21.53
2022-10-03T23:15:17.917Z,22.31
2022-10-03T23:18:45.581Z,21.90
2022-10-03T23:21:13.515Z,21.43
2022-10-03T23:23:53.218Z,22.62
2022-10-03T23:26:38.132Z,23.12
2022-10-03T23:29:08.144Z,21.64
2022-10-03T23:31:55.151Z,22.27
2022-10-03T23:34:47.780Z,22.63
2022-10-03T23:37:38.338Z,22.09
2022-10-03T23:40:30.324Z,21.59
2022-10-03T23:43:04.588Z,21.63
2022-10-03T23:45:34.499Z,22.12
2022-10-03T23:48:06.643Z,22.22
2022-10-03T23:50:38.909Z,22.73
2022-10-03T23:53:08.200Z,22.61
2022-10-03T23:55:39.745Z,22.01
2022-10-03T23:58:19.048Z,21.03
